sensor_id;sensor_type;location;lat;lon;timestamp;P1;durP1;ratioP1;P2;durP2;ratioP2
22922;SDS011;11627;51.322;22.816;2024-02-16T00:01:00;27.80;;;13.60;;
22922;SDS011;11627;51.322;22.816;2024-02-16T00:03:29;27.33;;;13.73;;
22922;SDS011;11627;51.322;22.816;2024-02-16T00:05:56;26.80;;;13.27;;
22922;SDS011;11627;51.322;22.816;2024-02-16T00:08:22;26.42;;;12.90;;
22922;SDS011;11627;51.322;22.816;2024-02-16T00:10:48;27.48;;;13.32;;
22922;SDS011;11627;51.322;22.816;2024-02-16T00:13:14;31.42;;;14.43;;
22922;SDS011;11627;51.322;22.816;2024-02-16T00:15:41;28.55;;;13.60;;
22922;SDS011;11627;51.322;22.816;2024-02-16T00:18:07;26.02;;;11.80;;
22922;SDS011;11627;51.322;22.816;2024-02-16T00:20:33;24.42;;;12.02;;
22922;SDS011;11627;51.322;22.816;2024-02-16T00:23:00;24.85;;;12.10;;
22922;SDS011;11627;51.322;22.816;2024-02-16T00:25:26;24.48;;;12.10;;
22922;SDS011;11627;51.322;22.816;2024-02-16T00:27:52;23.75;;;11.75;;
22922;SDS011;11627;51.322;22.816;2024-02-16T00:30:19;27.80;;;12.00;;
22922;SDS011;11627;51.322;22.816;2024-02-16T00:32:46;23.55;;;11.25;;
22922;SDS011;11627;51.322;22.816;2024-02-16T00:35:17;24.63;;;10.68;;
22922;SDS011;11627;51.322;22.816;2024-02-16T00:37:43;23.15;;;10.95;;
22922;SDS011;11627;51.322;22.816;2024-02-16T00:40:10;22.70;;;10.65;;
22922;SDS011;11627;51.322;22.816;2024-02-16T00:42:37;27.83;;;11.82;;
22922;SDS011;11627;51.322;22.816;2024-02-16T00:45:05;23.40;;;10.23;;
22922;SDS011;11627;51.322;22.816;2024-02-16T00:47:33;24.42;;;10.20;;
22922;SDS011;11627;51.322;22.816;2024-02-16T00:50:00;25.88;;;11.05;;
22922;SDS011;11627;51.322;22.816;2024-02-16T00:52:27;23.55;;;10.90;;
22922;SDS011;11627;51.322;22.816;2024-02-16T00:54:53;28.90;;;12.23;;
22922;SDS011;11627;51.322;22.816;2024-02-16T00:57:20;25.20;;;11.70;;
22922;SDS011;11627;51.322;22.816;2024-02-16T00:59:48;23.38;;;9.93;;
22922;SDS011;11627;51.322;22.816;2024-02-16T01:02:14;22.23;;;10.18;;
22922;SDS011;11627;51.322;22.816;2024-02-16T01:04:43;21.20;;;10.18;;
22922;SDS011;11627;51.322;22.816;2024-02-16T01:07:09;21.38;;;9.85;;
22922;SDS011;11627;51.322;22.816;2024-02-16T01:09:35;22.48;;;10.23;;
22922;SDS011;11627;51.322;22.816;2024-02-16T01:12:01;23.00;;;10.07;;
22922;SDS011;11627;51.322;22.816;2024-02-16T01:14:29;20.90;;;11.07;;
22922;SDS011;11627;51.322;22.816;2024-02-16T01:16:55;22.35;;;10.90;;
22922;SDS011;11627;51.322;22.816;2024-02-16T01:19:21;17.85;;;10.07;;
22922;SDS011;11627;51.322;22.816;2024-02-16T01:21:50;25.17;;;10.68;;
22922;SDS011;11627;51.322;22.816;2024-02-16T01:24:19;25.65;;;10.75;;
22922;SDS011;11627;51.322;22.816;2024-02-16T01:26:46;27.10;;;10.63;;
22922;SDS011;11627;51.322;22.816;2024-02-16T01:29:12;21.30;;;10.27;;
22922;SDS011;11627;51.322;22.816;2024-02-16T01:31:39;22.13;;;10.77;;
22922;SDS011;11627;51.322;22.816;2024-02-16T01:34:05;27.25;;;11.82;;
22922;SDS011;11627;51.322;22.816;2024-02-16T01:36:33;26.08;;;11.93;;
22922;SDS011;11627;51.322;22.816;2024-02-16T01:38:59;27.67;;;12.13;;
22922;SDS011;11627;51.322;22.816;2024-02-16T01:41:24;23.23;;;11.25;;
22922;SDS011;11627;51.322;22.816;2024-02-16T01:43:54;24.98;;;11.60;;
22922;SDS011;11627;51.322;22.816;2024-02-16T01:46:21;29.80;;;13.13;;
22922;SDS011;11627;51.322;22.816;2024-02-16T01:48:48;24.70;;;11.15;;
22922;SDS011;11627;51.322;22.816;2024-02-16T01:51:16;25.58;;;12.07;;
22922;SDS011;11627;51.322;22.816;2024-02-16T01:53:42;26.92;;;11.30;;
22922;SDS011;11627;51.322;22.816;2024-02-16T01:56:10;36.05;;;13.07;;
22922;SDS011;11627;51.322;22.816;2024-02-16T01:58:36;23.58;;;11.95;;
22922;SDS011;11627;51.322;22.816;2024-02-16T02:01:04;24.83;;;11.80;;
22922;SDS011;11627;51.322;22.816;2024-02-16T02:03:30;31.15;;;12.55;;
22922;SDS011;11627;51.322;22.816;2024-02-16T02:05:57;27.25;;;11.48;;
22922;SDS011;11627;51.322;22.816;2024-02-16T02:08:23;26.67;;;12.27;;
22922;SDS011;11627;51.322;22.816;2024-02-16T02:10:53;25.42;;;12.50;;
22922;SDS011;11627;51.322;22.816;2024-02-16T02:13:20;28.42;;;12.23;;
22922;SDS011;11627;51.322;22.816;2024-02-16T02:15:47;25.85;;;12.05;;
22922;SDS011;11627;51.322;22.816;2024-02-16T02:18:13;28.63;;;12.35;;
22922;SDS011;11627;51.322;22.816;2024-02-16T02:20:41;26.45;;;13.15;;
22922;SDS011;11627;51.322;22.816;2024-02-16T02:23:09;24.40;;;11.82;;
22922;SDS011;11627;51.322;22.816;2024-02-16T02:25:35;29.30;;;12.70;;
22922;SDS011;11627;51.322;22.816;2024-02-16T02:28:02;25.67;;;12.30;;
22922;SDS011;11627;51.322;22.816;2024-02-16T02:30:29;27.52;;;12.32;;
22922;SDS011;11627;51.322;22.816;2024-02-16T02:32:55;27.95;;;13.82;;
22922;SDS011;11627;51.322;22.816;2024-02-16T02:35:23;26.80;;;12.60;;
22922;SDS011;11627;51.322;22.816;2024-02-16T02:37:49;30.00;;;13.65;;
22922;SDS011;11627;51.322;22.816;2024-02-16T02:40:16;29.90;;;13.57;;
22922;SDS011;11627;51.322;22.816;2024-02-16T02:42:43;32.50;;;14.43;;
22922;SDS011;11627;51.322;22.816;2024-02-16T02:45:09;31.92;;;14.23;;
22922;SDS011;11627;51.322;22.816;2024-02-16T02:47:38;34.83;;;14.98;;
22922;SDS011;11627;51.322;22.816;2024-02-16T02:50:04;32.50;;;15.60;;
22922;SDS011;11627;51.322;22.816;2024-02-16T02:52:32;33.33;;;15.50;;
22922;SDS011;11627;51.322;22.816;2024-02-16T02:54:58;34.88;;;16.17;;
22922;SDS011;11627;51.322;22.816;2024-02-16T02:57:24;30.83;;;14.30;;
22922;SDS011;11627;51.322;22.816;2024-02-16T02:59:51;27.92;;;13.75;;
22922;SDS011;11627;51.322;22.816;2024-02-16T03:02:18;32.00;;;14.48;;
22922;SDS011;11627;51.322;22.816;2024-02-16T03:04:45;30.33;;;15.00;;
22922;SDS011;11627;51.322;22.816;2024-02-16T03:07:13;30.75;;;15.32;;
22922;SDS011;11627;51.322;22.816;2024-02-16T03:09:40;28.23;;;13.98;;
22922;SDS011;11627;51.322;22.816;2024-02-16T03:12:09;30.05;;;14.30;;
22922;SDS011;11627;51.322;22.816;2024-02-16T03:14:36;31.17;;;15.40;;
22922;SDS011;11627;51.322;22.816;2024-02-16T03:17:02;33.47;;;15.25;;
22922;SDS011;11627;51.322;22.816;2024-02-16T03:19:30;32.28;;;14.30;;
22922;SDS011;11627;51.322;22.816;2024-02-16T03:21:56;27.92;;;14.57;;
22922;SDS011;11627;51.322;22.816;2024-02-16T03:24:25;31.60;;;14.75;;
22922;SDS011;11627;51.322;22.816;2024-02-16T03:26:50;30.30;;;13.95;;
22922;SDS011;11627;51.322;22.816;2024-02-16T03:29:18;28.02;;;14.20;;
22922;SDS011;11627;51.322;22.816;2024-02-16T03:31:44;27.40;;;14.13;;
22922;SDS011;11627;51.322;22.816;2024-02-16T03:34:09;26.45;;;13.32;;
22922;SDS011;11627;51.322;22.816;2024-02-16T03:36:36;27.05;;;12.63;;
22922;SDS011;11627;51.322;22.816;2024-02-16T03:39:02;26.75;;;13.48;;
22922;SDS011;11627;51.322;22.816;2024-02-16T03:41:28;28.38;;;13.13;;
22922;SDS011;11627;51.322;22.816;2024-02-16T03:43:55;24.38;;;12.48;;
22922;SDS011;11627;51.322;22.816;2024-02-16T03:46:22;28.17;;;13.32;;
22922;SDS011;11627;51.322;22.816;2024-02-16T03:48:48;25.02;;;13.23;;
22922;SDS011;11627;51.322;22.816;2024-02-16T03:51:15;32.50;;;13.35;;
22922;SDS011;11627;51.322;22.816;2024-02-16T03:53:44;28.58;;;13.15;;
22922;SDS011;11627;51.322;22.816;2024-02-16T03:56:17;29.75;;;13.65;;
22922;SDS011;11627;51.322;22.816;2024-02-16T03:58:45;25.73;;;13.57;;
22922;SDS011;11627;51.322;22.816;2024-02-16T04:01:12;27.63;;;13.40;;
22922;SDS011;11627;51.322;22.816;2024-02-16T04:03:38;29.05;;;13.50;;
22922;SDS011;11627;51.322;22.816;2024-02-16T04:06:05;29.48;;;13.40;;
22922;SDS011;11627;51.322;22.816;2024-02-16T04:08:32;27.75;;;12.85;;
22922;SDS011;11627;51.322;22.816;2024-02-16T04:10:59;30.77;;;13.52;;
22922;SDS011;11627;51.322;22.816;2024-02-16T04:13:25;28.43;;;13.30;;
22922;SDS011;11627;51.322;22.816;2024-02-16T04:15:51;26.85;;;12.77;;
22922;SDS011;11627;51.322;22.816;2024-02-16T04:18:18;27.38;;;12.95;;
22922;SDS011;11627;51.322;22.816;2024-02-16T04:20:44;25.50;;;12.60;;
22922;SDS011;11627;51.322;22.816;2024-02-16T04:23:11;31.33;;;13.35;;
22922;SDS011;11627;51.322;22.816;2024-02-16T04:25:37;26.15;;;12.77;;
22922;SDS011;11627;51.322;22.816;2024-02-16T04:28:05;26.65;;;12.60;;
22922;SDS011;11627;51.322;22.816;2024-02-16T04:30:33;29.35;;;13.35;;
22922;SDS011;11627;51.322;22.816;2024-02-16T04:32:58;29.70;;;13.55;;
22922;SDS011;11627;51.322;22.816;2024-02-16T04:35:25;29.33;;;12.88;;
22922;SDS011;11627;51.322;22.816;2024-02-16T04:37:52;28.50;;;13.35;;
22922;SDS011;11627;51.322;22.816;2024-02-16T04:40:18;26.30;;;13.88;;
22922;SDS011;11627;51.322;22.816;2024-02-16T04:42:45;26.75;;;12.63;;
22922;SDS011;11627;51.322;22.816;2024-02-16T04:45:12;27.73;;;13.57;;
22922;SDS011;11627;51.322;22.816;2024-02-16T04:47:40;30.15;;;13.38;;
22922;SDS011;11627;51.322;22.816;2024-02-16T04:50:06;28.67;;;13.40;;
22922;SDS011;11627;51.322;22.816;2024-02-16T04:52:37;30.05;;;14.05;;
22922;SDS011;11627;51.322;22.816;2024-02-16T04:55:06;27.42;;;13.13;;
22922;SDS011;11627;51.322;22.816;2024-02-16T04:57:33;29.77;;;13.60;;
22922;SDS011;11627;51.322;22.816;2024-02-16T04:59:59;26.85;;;12.82;;
22922;SDS011;11627;51.322;22.816;2024-02-16T05:02:28;29.08;;;13.55;;
22922;SDS011;11627;51.322;22.816;2024-02-16T05:04:54;27.55;;;14.00;;
22922;SDS011;11627;51.322;22.816;2024-02-16T05:07:20;33.85;;;14.80;;
22922;SDS011;11627;51.322;22.816;2024-02-16T05:09:46;34.88;;;14.10;;
22922;SDS011;11627;51.322;22.816;2024-02-16T05:12:12;32.97;;;14.07;;
22922;SDS011;11627;51.322;22.816;2024-02-16T05:14:39;26.67;;;13.80;;
22922;SDS011;11627;51.322;22.816;2024-02-16T05:17:06;37.30;;;15.75;;
22922;SDS011;11627;51.322;22.816;2024-02-16T05:19:32;33.40;;;14.60;;
22922;SDS011;11627;51.322;22.816;2024-02-16T05:21:59;34.30;;;15.15;;
22922;SDS011;11627;51.322;22.816;2024-02-16T05:24:25;34.25;;;14.75;;
22922;SDS011;11627;51.322;22.816;2024-02-16T05:26:52;26.52;;;13.73;;
22922;SDS011;11627;51.322;22.816;2024-02-16T05:29:19;28.95;;;13.85;;
22922;SDS011;11627;51.322;22.816;2024-02-16T05:31:46;31.23;;;13.80;;
22922;SDS011;11627;51.322;22.816;2024-02-16T05:34:13;25.08;;;13.57;;
22922;SDS011;11627;51.322;22.816;2024-02-16T05:36:40;30.67;;;14.38;;
22922;SDS011;11627;51.322;22.816;2024-02-16T05:39:08;31.85;;;13.73;;
22922;SDS011;11627;51.322;22.816;2024-02-16T05:41:51;31.27;;;14.57;;
22922;SDS011;11627;51.322;22.816;2024-02-16T05:44:18;30.83;;;14.68;;
22922;SDS011;11627;51.322;22.816;2024-02-16T05:46:46;34.05;;;15.02;;
22922;SDS011;11627;51.322;22.816;2024-02-16T05:49:13;36.80;;;16.67;;
22922;SDS011;11627;51.322;22.816;2024-02-16T05:51:41;34.25;;;16.27;;
22922;SDS011;11627;51.322;22.816;2024-02-16T05:54:29;34.35;;;18.67;;
22922;SDS011;11627;51.322;22.816;2024-02-16T05:56:55;34.22;;;16.60;;
22922;SDS011;11627;51.322;22.816;2024-02-16T05:59:21;36.17;;;16.38;;
22922;SDS011;11627;51.322;22.816;2024-02-16T06:01:51;42.42;;;17.27;;
22922;SDS011;11627;51.322;22.816;2024-02-16T06:04:17;42.70;;;18.27;;
22922;SDS011;11627;51.322;22.816;2024-02-16T06:06:44;33.95;;;16.80;;
22922;SDS011;11627;51.322;22.816;2024-02-16T06:09:11;38.17;;;17.98;;
22922;SDS011;11627;51.322;22.816;2024-02-16T06:11:37;34.08;;;17.25;;
22922;SDS011;11627;51.322;22.816;2024-02-16T06:14:06;40.58;;;17.73;;
22922;SDS011;11627;51.322;22.816;2024-02-16T06:16:32;39.42;;;16.73;;
22922;SDS011;11627;51.322;22.816;2024-02-16T06:18:59;41.60;;;17.30;;
22922;SDS011;11627;51.322;22.816;2024-02-16T06:21:25;40.70;;;19.05;;
22922;SDS011;11627;51.322;22.816;2024-02-16T06:23:51;38.47;;;19.45;;
22922;SDS011;11627;51.322;22.816;2024-02-16T06:26:16;42.80;;;20.08;;
22922;SDS011;11627;51.322;22.816;2024-02-16T06:28:43;41.60;;;18.00;;
22922;SDS011;11627;51.322;22.816;2024-02-16T06:31:09;36.13;;;17.15;;
22922;SDS011;11627;51.322;22.816;2024-02-16T06:33:37;35.40;;;17.33;;
22922;SDS011;11627;51.322;22.816;2024-02-16T06:36:04;37.58;;;17.23;;
22922;SDS011;11627;51.322;22.816;2024-02-16T06:38:32;37.85;;;17.95;;
22922;SDS011;11627;51.322;22.816;2024-02-16T06:40:59;37.33;;;18.13;;
22922;SDS011;11627;51.322;22.816;2024-02-16T06:43:28;44.00;;;19.98;;
22922;SDS011;11627;51.322;22.816;2024-02-16T06:45:54;45.30;;;21.20;;
22922;SDS011;11627;51.322;22.816;2024-02-16T06:48:22;48.05;;;24.35;;
22922;SDS011;11627;51.322;22.816;2024-02-16T06:50:48;39.22;;;18.60;;
22922;SDS011;11627;51.322;22.816;2024-02-16T06:53:16;41.60;;;20.83;;
22922;SDS011;11627;51.322;22.816;2024-02-16T06:55:44;37.67;;;17.95;;
22922;SDS011;11627;51.322;22.816;2024-02-16T06:58:10;38.38;;;19.00;;
22922;SDS011;11627;51.322;22.816;2024-02-16T07:00:36;32.92;;;17.08;;
22922;SDS011;11627;51.322;22.816;2024-02-16T07:03:02;40.83;;;19.83;;
22922;SDS011;11627;51.322;22.816;2024-02-16T07:05:29;41.75;;;18.58;;
22922;SDS011;11627;51.322;22.816;2024-02-16T07:07:56;36.97;;;17.58;;
22922;SDS011;11627;51.322;22.816;2024-02-16T07:10:22;36.10;;;17.52;;
22922;SDS011;11627;51.322;22.816;2024-02-16T07:12:48;32.78;;;17.02;;
22922;SDS011;11627;51.322;22.816;2024-02-16T07:15:14;38.45;;;17.85;;
22922;SDS011;11627;51.322;22.816;2024-02-16T07:17:40;38.63;;;17.23;;
22922;SDS011;11627;51.322;22.816;2024-02-16T07:20:06;37.10;;;17.05;;
22922;SDS011;11627;51.322;22.816;2024-02-16T07:22:32;34.15;;;17.95;;
22922;SDS011;11627;51.322;22.816;2024-02-16T07:24:59;38.25;;;18.60;;
22922;SDS011;11627;51.322;22.816;2024-02-16T07:27:25;44.53;;;18.63;;
22922;SDS011;11627;51.322;22.816;2024-02-16T07:29:52;42.92;;;18.40;;
22922;SDS011;11627;51.322;22.816;2024-02-16T07:32:20;46.03;;;18.52;;
22922;SDS011;11627;51.322;22.816;2024-02-16T07:34:47;49.38;;;19.40;;
22922;SDS011;11627;51.322;22.816;2024-02-16T07:37:13;43.40;;;18.58;;
22922;SDS011;11627;51.322;22.816;2024-02-16T07:39:42;40.70;;;18.40;;
22922;SDS011;11627;51.322;22.816;2024-02-16T07:42:08;40.55;;;17.45;;
22922;SDS011;11627;51.322;22.816;2024-02-16T07:44:37;40.65;;;17.60;;
22922;SDS011;11627;51.322;22.816;2024-02-16T07:47:06;35.60;;;17.83;;
22922;SDS011;11627;51.322;22.816;2024-02-16T07:49:32;35.72;;;17.67;;
22922;SDS011;11627;51.322;22.816;2024-02-16T07:51:59;40.20;;;17.98;;
22922;SDS011;11627;51.322;22.816;2024-02-16T07:54:25;38.65;;;18.42;;
22922;SDS011;11627;51.322;22.816;2024-02-16T07:56:53;35.75;;;17.63;;
22922;SDS011;11627;51.322;22.816;2024-02-16T07:59:18;33.75;;;17.60;;
22922;SDS011;11627;51.322;22.816;2024-02-16T08:01:47;34.15;;;17.73;;
22922;SDS011;11627;51.322;22.816;2024-02-16T08:04:13;33.60;;;16.48;;
22922;SDS011;11627;51.322;22.816;2024-02-16T08:06:40;35.38;;;17.25;;
22922;SDS011;11627;51.322;22.816;2024-02-16T08:09:07;38.92;;;18.23;;
22922;SDS011;11627;51.322;22.816;2024-02-16T08:11:33;47.67;;;23.35;;
22922;SDS011;11627;51.322;22.816;2024-02-16T08:13:59;43.75;;;22.90;;
22922;SDS011;11627;51.322;22.816;2024-02-16T08:16:26;40.20;;;20.40;;
22922;SDS011;11627;51.322;22.816;2024-02-16T08:18:54;50.10;;;24.35;;
22922;SDS011;11627;51.322;22.816;2024-02-16T08:21:20;39.58;;;19.08;;
22922;SDS011;11627;51.322;22.816;2024-02-16T08:23:47;46.97;;;20.23;;
22922;SDS011;11627;51.322;22.816;2024-02-16T08:26:13;55.80;;;23.38;;
22922;SDS011;11627;51.322;22.816;2024-02-16T08:28:39;57.53;;;26.25;;
22922;SDS011;11627;51.322;22.816;2024-02-16T08:31:10;48.53;;;21.63;;
22922;SDS011;11627;51.322;22.816;2024-02-16T08:33:45;42.35;;;19.80;;
22922;SDS011;11627;51.322;22.816;2024-02-16T08:36:12;47.47;;;22.90;;
22922;SDS011;11627;51.322;22.816;2024-02-16T08:38:39;40.42;;;21.42;;
22922;SDS011;11627;51.322;22.816;2024-02-16T08:41:05;37.95;;;17.52;;
22922;SDS011;11627;51.322;22.816;2024-02-16T08:43:31;33.35;;;18.42;;
22922;SDS011;11627;51.322;22.816;2024-02-16T08:45:58;33.05;;;16.73;;
22922;SDS011;11627;51.322;22.816;2024-02-16T08:48:24;37.78;;;17.17;;
22922;SDS011;11627;51.322;22.816;2024-02-16T08:50:50;32.20;;;17.02;;
22922;SDS011;11627;51.322;22.816;2024-02-16T08:53:17;30.83;;;17.40;;
22922;SDS011;11627;51.322;22.816;2024-02-16T08:55:43;34.40;;;17.08;;
22922;SDS011;11627;51.322;22.816;2024-02-16T08:58:11;34.53;;;16.60;;
22922;SDS011;11627;51.322;22.816;2024-02-16T09:00:39;32.17;;;16.50;;
22922;SDS011;11627;51.322;22.816;2024-02-16T09:03:06;31.50;;;15.40;;
22922;SDS011;11627;51.322;22.816;2024-02-16T09:05:33;27.00;;;14.80;;
22922;SDS011;11627;51.322;22.816;2024-02-16T09:07:59;29.45;;;14.32;;
22922;SDS011;11627;51.322;22.816;2024-02-16T09:10:28;27.30;;;15.25;;
22922;SDS011;11627;51.322;22.816;2024-02-16T09:12:54;26.30;;;14.18;;
22922;SDS011;11627;51.322;22.816;2024-02-16T09:15:20;28.55;;;14.10;;
22922;SDS011;11627;51.322;22.816;2024-02-16T09:17:46;28.38;;;14.18;;
22922;SDS011;11627;51.322;22.816;2024-02-16T09:20:12;25.67;;;13.70;;
22922;SDS011;11627;51.322;22.816;2024-02-16T09:22:40;26.52;;;13.95;;
22922;SDS011;11627;51.322;22.816;2024-02-16T09:25:06;26.42;;;13.73;;
22922;SDS011;11627;51.322;22.816;2024-02-16T09:27:34;22.27;;;12.32;;
22922;SDS011;11627;51.322;22.816;2024-02-16T09:29:59;22.65;;;12.90;;
22922;SDS011;11627;51.322;22.816;2024-02-16T09:32:25;26.98;;;12.38;;
22922;SDS011;11627;51.322;22.816;2024-02-16T09:34:51;23.05;;;12.63;;
22922;SDS011;11627;51.322;22.816;2024-02-16T09:37:19;20.27;;;11.63;;
22922;SDS011;11627;51.322;22.816;2024-02-16T09:39:45;19.08;;;11.10;;
22922;SDS011;11627;51.322;22.816;2024-02-16T09:42:12;20.58;;;11.13;;
22922;SDS011;11627;51.322;22.816;2024-02-16T09:44:39;19.38;;;11.00;;
22922;SDS011;11627;51.322;22.816;2024-02-16T09:47:07;20.88;;;11.48;;
22922;SDS011;11627;51.322;22.816;2024-02-16T09:49:39;18.20;;;10.27;;
22922;SDS011;11627;51.322;22.816;2024-02-16T09:52:05;20.23;;;11.30;;
22922;SDS011;11627;51.322;22.816;2024-02-16T09:54:56;19.15;;;11.32;;
22922;SDS011;11627;51.322;22.816;2024-02-16T09:57:23;20.95;;;10.90;;
22922;SDS011;11627;51.322;22.816;2024-02-16T09:59:49;17.35;;;9.50;;
22922;SDS011;11627;51.322;22.816;2024-02-16T10:02:16;20.02;;;9.65;;
22922;SDS011;11627;51.322;22.816;2024-02-16T10:04:42;21.85;;;10.30;;
22922;SDS011;11627;51.322;22.816;2024-02-16T10:07:08;19.88;;;10.00;;
22922;SDS011;11627;51.322;22.816;2024-02-16T10:09:34;19.80;;;10.95;;
22922;SDS011;11627;51.322;22.816;2024-02-16T10:12:00;17.55;;;9.93;;
22922;SDS011;11627;51.322;22.816;2024-02-16T10:14:26;21.77;;;10.75;;
22922;SDS011;11627;51.322;22.816;2024-02-16T10:17:04;19.25;;;10.85;;
22922;SDS011;11627;51.322;22.816;2024-02-16T10:19:32;20.15;;;9.93;;
22922;SDS011;11627;51.322;22.816;2024-02-16T10:22:06;15.15;;;9.02;;
22922;SDS011;11627;51.322;22.816;2024-02-16T10:24:36;19.92;;;10.18;;
22922;SDS011;11627;51.322;22.816;2024-02-16T10:27:05;19.98;;;10.50;;
22922;SDS011;11627;51.322;22.816;2024-02-16T10:29:35;19.50;;;10.85;;
22922;SDS011;11627;51.322;22.816;2024-02-16T10:32:05;17.75;;;10.35;;
22922;SDS011;11627;51.322;22.816;2024-02-16T10:34:31;20.10;;;10.10;;
22922;SDS011;11627;51.322;22.816;2024-02-16T10:36:57;18.23;;;10.32;;
22922;SDS011;11627;51.322;22.816;2024-02-16T10:39:26;26.10;;;12.10;;
22922;SDS011;11627;51.322;22.816;2024-02-16T10:41:55;24.30;;;11.80;;
22922;SDS011;11627;51.322;22.816;2024-02-16T10:44:27;19.73;;;10.63;;
22922;SDS011;11627;51.322;22.816;2024-02-16T10:46:55;19.30;;;10.93;;
22922;SDS011;11627;51.322;22.816;2024-02-16T10:49:24;23.77;;;13.15;;
22922;SDS011;11627;51.322;22.816;2024-02-16T10:51:54;22.90;;;11.75;;
22922;SDS011;11627;51.322;22.816;2024-02-16T10:54:22;24.52;;;13.00;;
22922;SDS011;11627;51.322;22.816;2024-02-16T10:56:58;22.17;;;11.15;;
22922;SDS011;11627;51.322;22.816;2024-02-16T10:59:24;22.33;;;10.57;;
22922;SDS011;11627;51.322;22.816;2024-02-16T11:02:00;20.00;;;10.90;;
22922;SDS011;11627;51.322;22.816;2024-02-16T11:04:35;20.60;;;11.38;;
22922;SDS011;11627;51.322;22.816;2024-02-16T11:07:12;19.60;;;11.50;;
22922;SDS011;11627;51.322;22.816;2024-02-16T11:09:43;17.90;;;10.70;;
22922;SDS011;11627;51.322;22.816;2024-02-16T11:12:15;20.17;;;11.38;;
22922;SDS011;11627;51.322;22.816;2024-02-16T11:14:45;21.40;;;12.13;;
22922;SDS011;11627;51.322;22.816;2024-02-16T11:17:22;21.92;;;11.55;;
22922;SDS011;11627;51.322;22.816;2024-02-16T11:19:53;23.80;;;11.98;;
22922;SDS011;11627;51.322;22.816;2024-02-16T11:22:20;21.05;;;11.43;;
22922;SDS011;11627;51.322;22.816;2024-02-16T11:24:46;22.52;;;12.13;;
22922;SDS011;11627;51.322;22.816;2024-02-16T11:27:19;20.27;;;11.70;;
22922;SDS011;11627;51.322;22.816;2024-02-16T11:29:48;26.80;;;12.93;;
22922;SDS011;11627;51.322;22.816;2024-02-16T11:32:14;25.13;;;12.18;;
22922;SDS011;11627;51.322;22.816;2024-02-16T11:34:40;20.33;;;11.60;;
22922;SDS011;11627;51.322;22.816;2024-02-16T11:37:07;20.02;;;10.00;;
22922;SDS011;11627;51.322;22.816;2024-02-16T11:39:34;22.30;;;11.73;;
22922;SDS011;11627;51.322;22.816;2024-02-16T11:42:03;22.30;;;11.65;;
22922;SDS011;11627;51.322;22.816;2024-02-16T11:44:35;21.38;;;11.82;;
22922;SDS011;11627;51.322;22.816;2024-02-16T11:47:05;24.30;;;11.18;;
22922;SDS011;11627;51.322;22.816;2024-02-16T11:49:37;19.70;;;11.68;;
22922;SDS011;11627;51.322;22.816;2024-02-16T11:52:03;18.63;;;10.30;;
22922;SDS011;11627;51.322;22.816;2024-02-16T11:54:30;20.02;;;10.98;;
22922;SDS011;11627;51.322;22.816;2024-02-16T11:56:57;24.15;;;12.05;;
22922;SDS011;11627;51.322;22.816;2024-02-16T11:59:24;22.08;;;11.55;;
22922;SDS011;11627;51.322;22.816;2024-02-16T12:01:51;18.63;;;10.68;;
22922;SDS011;11627;51.322;22.816;2024-02-16T12:04:21;19.38;;;10.50;;
22922;SDS011;11627;51.322;22.816;2024-02-16T12:06:54;21.15;;;11.27;;
22922;SDS011;11627;51.322;22.816;2024-02-16T12:09:23;21.55;;;11.55;;
22922;SDS011;11627;51.322;22.816;2024-02-16T12:11:54;19.00;;;10.07;;
22922;SDS011;11627;51.322;22.816;2024-02-16T12:14:21;19.25;;;10.63;;
22922;SDS011;11627;51.322;22.816;2024-02-16T12:16:48;19.65;;;10.80;;
22922;SDS011;11627;51.322;22.816;2024-02-16T12:19:18;20.58;;;11.50;;
22922;SDS011;11627;51.322;22.816;2024-02-16T12:21:50;19.27;;;11.05;;
22922;SDS011;11627;51.322;22.816;2024-02-16T12:24:19;19.63;;;10.65;;
22922;SDS011;11627;51.322;22.816;2024-02-16T12:26:45;18.50;;;10.43;;
22922;SDS011;11627;51.322;22.816;2024-02-16T12:29:13;17.80;;;10.25;;
22922;SDS011;11627;51.322;22.816;2024-02-16T12:31:41;19.20;;;10.88;;
22922;SDS011;11627;51.322;22.816;2024-02-16T12:34:10;17.33;;;10.48;;
22922;SDS011;11627;51.322;22.816;2024-02-16T12:36:40;20.10;;;11.07;;
22922;SDS011;11627;51.322;22.816;2024-02-16T12:39:07;20.45;;;10.32;;
22922;SDS011;11627;51.322;22.816;2024-02-16T12:41:39;18.80;;;10.07;;
22922;SDS011;11627;51.322;22.816;2024-02-16T12:44:07;22.17;;;11.55;;
22922;SDS011;11627;51.322;22.816;2024-02-16T12:46:34;18.60;;;10.98;;
22922;SDS011;11627;51.322;22.816;2024-02-16T12:49:00;23.48;;;11.45;;
22922;SDS011;11627;51.322;22.816;2024-02-16T12:51:27;20.02;;;10.48;;
22922;SDS011;11627;51.322;22.816;2024-02-16T12:53:53;22.13;;;10.50;;
22922;SDS011;11627;51.322;22.816;2024-02-16T12:56:21;16.77;;;9.65;;
22922;SDS011;11627;51.322;22.816;2024-02-16T12:58:49;19.17;;;10.13;;
22922;SDS011;11627;51.322;22.816;2024-02-16T13:01:16;20.83;;;11.00;;
22922;SDS011;11627;51.322;22.816;2024-02-16T13:03:44;23.65;;;10.85;;
22922;SDS011;11627;51.322;22.816;2024-02-16T13:06:10;17.88;;;10.85;;
22922;SDS011;11627;51.322;22.816;2024-02-16T13:08:37;22.50;;;10.93;;
22922;SDS011;11627;51.322;22.816;2024-02-16T13:11:05;18.73;;;10.38;;
22922;SDS011;11627;51.322;22.816;2024-02-16T13:13:31;18.38;;;11.02;;
22922;SDS011;11627;51.322;22.816;2024-02-16T13:15:57;19.42;;;10.93;;
22922;SDS011;11627;51.322;22.816;2024-02-16T13:18:24;18.17;;;11.18;;
22922;SDS011;11627;51.322;22.816;2024-02-16T13:20:51;19.98;;;11.07;;
22922;SDS011;11627;51.322;22.816;2024-02-16T13:23:17;19.45;;;10.75;;
22922;SDS011;11627;51.322;22.816;2024-02-16T13:25:43;20.20;;;11.80;;
22922;SDS011;11627;51.322;22.816;2024-02-16T13:28:09;17.85;;;11.02;;
22922;SDS011;11627;51.322;22.816;2024-02-16T13:30:35;17.33;;;9.88;;
22922;SDS011;11627;51.322;22.816;2024-02-16T13:33:02;22.98;;;11.02;;
22922;SDS011;11627;51.322;22.816;2024-02-16T13:35:30;22.10;;;11.75;;
22922;SDS011;11627;51.322;22.816;2024-02-16T13:38:02;19.92;;;11.35;;
22922;SDS011;11627;51.322;22.816;2024-02-16T13:40:30;21.33;;;12.05;;
22922;SDS011;11627;51.322;22.816;2024-02-16T13:42:59;21.73;;;11.93;;
22922;SDS011;11627;51.322;22.816;2024-02-16T13:45:45;22.85;;;11.90;;
22922;SDS011;11627;51.322;22.816;2024-02-16T13:48:20;25.70;;;13.68;;
22922;SDS011;11627;51.322;22.816;2024-02-16T13:50:50;24.50;;;13.57;;
22922;SDS011;11627;51.322;22.816;2024-02-16T13:53:20;28.92;;;15.80;;
22922;SDS011;11627;51.322;22.816;2024-02-16T13:55:48;28.80;;;16.38;;
22922;SDS011;11627;51.322;22.816;2024-02-16T13:58:14;28.60;;;14.35;;
22922;SDS011;11627;51.322;22.816;2024-02-16T14:00:41;26.23;;;14.70;;
22922;SDS011;11627;51.322;22.816;2024-02-16T14:03:08;26.23;;;13.38;;
22922;SDS011;11627;51.322;22.816;2024-02-16T14:05:37;23.98;;;14.18;;
22922;SDS011;11627;51.322;22.816;2024-02-16T14:08:05;27.30;;;15.18;;
22922;SDS011;11627;51.322;22.816;2024-02-16T14:10:35;30.23;;;16.45;;